createdAt,value
2023-03-12T00:02:23.294Z,99206.00
2023-03-12T00:04:53.669Z,99208.00
2023-03-12T00:07:22.639Z,99203.84
2023-03-12T00:09:54.785Z,99203.22
2023-03-12T00:12:23.757Z,99199.84
2023-03-12T00:14:52.831Z,99196.50
2023-03-12T00:17:21.774Z,99202.81
2023-03-12T00:19:54.704Z,99201.25
2023-03-12T00:22:23.743Z,99201.25
2023-03-12T00:24:57.634Z,99200.88
2023-03-12T00:27:27.538Z,99201.81
2023-03-12T00:29:56.525Z,99207.97
2023-03-12T00:32:25.610Z,99206.41
2023-03-12T00:34:58.223Z,99209.56
2023-03-12T00:37:27.593Z,99212.34
2023-03-12T00:39:59.292Z,99205.59
2023-03-12T00:42:30.983Z,99207.56
2023-03-12T00:45:00.113Z,99206.00
2023-03-12T00:47:29.126Z,99199.44
2023-03-12T00:49:59.433Z,99208.16
2023-03-12T00:52:28.383Z,99199.66
2023-03-12T00:55:00.322Z,99201.63
2023-03-12T00:57:29.999Z,99203.59
2023-03-12T00:59:59.051Z,99202.38
2023-03-12T01:02:28.178Z,99198.44
2023-03-12T01:04:59.703Z,99196.84
2023-03-12T01:07:31.014Z,99203.78
2023-03-12T01:10:00.535Z,99207.34
2023-03-12T01:12:29.596Z,99201.41
2023-03-12T01:14:58.566Z,99198.00
2023-03-12T01:17:27.761Z,99203.59
2023-03-12T01:19:56.952Z,99193.47
2023-03-12T01:22:27.427Z,99193.66
2023-03-12T01:24:56.404Z,99192.88
2023-03-12T01:27:25.410Z,99192.06
2023-03-12T01:29:54.669Z,99198.22
2023-03-12T01:32:23.919Z,99195.63
2023-03-12T01:34:52.949Z,99200.78
2023-03-12T01:37:21.995Z,99194.06
2023-03-12T01:39:52.336Z,99201.78
2023-03-12T01:42:21.315Z,99196.63
2023-03-12T01:44:53.390Z,99192.44
2023-03-12T01:47:23.126Z,99196.03
2023-03-12T01:49:58.185Z,99194.44
2023-03-12T01:52:30.741Z,99203.16
2023-03-12T01:55:06.142Z,99199.16
2023-03-12T01:57:42.104Z,99192.44
2023-03-12T02:00:14.958Z,99188.28
2023-03-12T02:02:45.987Z,99182.34
2023-03-12T02:05:27.893Z,99176.63
2023-03-12T02:07:57.546Z,99172.44
2023-03-12T02:10:28.538Z,99175.81
2023-03-12T02:12:57.671Z,99171.47
2023-03-12T02:15:26.852Z,99171.25
2023-03-12T02:17:55.888Z,99177.19
2023-03-12T02:20:32.178Z,99169.47
2023-03-12T02:23:09.871Z,99164.31
2023-03-12T02:25:43.162Z,99162.75
2023-03-12T02:28:16.624Z,99159.19
2023-03-12T02:30:50.151Z,99165.91
2023-03-12T02:33:21.746Z,99162.38
2023-03-12T02:35:50.855Z,99157.22
2023-03-12T02:38:40.638Z,99161.38
2023-03-12T02:41:20.120Z,99158.78
2023-03-12T02:44:02.752Z,99166.69
2023-03-12T02:46:37.178Z,99158.38
2023-03-12T02:49:06.372Z,99152.44
2023-03-12T02:51:35.507Z,99152.44
2023-03-12T02:54:05.139Z,99147.31
2023-03-12T02:56:38.973Z,99144.13
2023-03-12T02:59:09.394Z,99149.28
2023-03-12T03:01:43.101Z,99151.84
2023-03-12T03:04:14.266Z,99150.88
2023-03-12T03:06:45.276Z,99147.31
2023-03-12T03:09:14.401Z,99154.03
2023-03-12T03:11:44.717Z,99153.03
2023-03-12T03:14:16.235Z,99151.25
2023-03-12T03:16:45.407Z,99150.25
2023-03-12T03:19:14.386Z,99151.88
2023-03-12T03:21:43.904Z,99142.34
2023-03-12T03:24:13.365Z,99140.56
2023-03-12T03:26:44.216Z,99144.16
2023-03-12T03:29:13.361Z,99132.25
2023-03-12T03:31:42.414Z,99131.47
2023-03-12T03:34:12.765Z,99127.91
2023-03-12T03:36:41.839Z,99136.44
2023-03-12T03:39:15.009Z,99133.25
2023-03-12T03:41:47.258Z,99128.09
2023-03-12T03:44:19.005Z,99134.81
2023-03-12T03:46:49.654Z,99126.91
2023-03-12T03:49:18.655Z,99119.19
2023-03-12T03:51:47.869Z,99120.78
2023-03-12T03:54:25.032Z,99128.50
2023-03-12T03:56:55.789Z,99121.56
2023-03-12T03:59:25.089Z,99122.38
2023-03-12T04:01:54.076Z,99121.19
2023-03-12T04:04:23.218Z,99134.84
2023-03-12T04:06:52.550Z,99132.28
2023-03-12T04:09:21.567Z,99133.25
2023-03-12T04:11:50.638Z,99136.03
2023-03-12T04:14:21.094Z,99137.00
2023-03-12T04:16:50.116Z,99134.63
2023-03-12T04:19:19.205Z,99129.47
2023-03-12T04:21:48.195Z,99128.69
2023-03-12T04:24:20.355Z,99132.25
2023-03-12T04:26:51.683Z,99125.34
2023-03-12T04:29:22.435Z,99129.88
2023-03-12T04:31:53.734Z,99127.09
2023-03-12T04:34:23.080Z,99126.91
2023-03-12T04:36:54.123Z,99130.09
2023-03-12T04:39:26.819Z,99132.28
2023-03-12T04:41:56.030Z,99119.97
2023-03-12T04:44:26.485Z,99121.59
2023-03-12T04:46:55.683Z,99120.41
2023-03-12T04:49:27.662Z,99120.19
2023-03-12T04:51:57.818Z,99120.00
2023-03-12T04:54:26.817Z,99115.63
2023-03-12T04:56:55.948Z,99109.50
2023-03-12T04:59:26.724Z,99109.13
2023-03-12T05:01:56.405Z,99104.53
2023-03-12T05:04:29.022Z,99112.88
2023-03-12T05:06:58.393Z,99103.34
2023-03-12T05:09:27.405Z,99096.22
2023-03-12T05:11:59.752Z,99091.88
2023-03-12T05:14:30.464Z,99085.75
2023-03-12T05:16:59.753Z,99094.06
2023-03-12T05:19:28.785Z,99097.41
2023-03-12T05:21:57.869Z,99094.66
2023-03-12T05:24:27.547Z,99096.22
2023-03-12T05:26:56.668Z,99097.81
2023-03-12T05:29:35.390Z,99099.41
2023-03-12T05:32:07.560Z,99093.44
2023-03-12T05:34:37.274Z,99093.44
2023-03-12T05:37:06.448Z,99102.78
2023-03-12T05:39:35.647Z,99088.28
2023-03-12T05:42:07.932Z,99092.69
2023-03-12T05:44:39.391Z,99100.22
2023-03-12T05:47:09.097Z,99093.25
2023-03-12T05:49:38.115Z,99095.81
2023-03-12T05:52:07.966Z,99099.41
2023-03-12T05:54:37.266Z,99103.56
2023-03-12T05:57:08.002Z,99107.72
2023-03-12T05:59:38.400Z,99115.25
2023-03-12T06:02:08.517Z,99099.81
2023-03-12T06:04:38.030Z,99091.84
2023-03-12T06:07:10.746Z,99106.91
2023-03-12T06:09:39.752Z,99101.97
2023-03-12T06:12:09.172Z,99105.34
2023-03-12T06:14:39.804Z,99108.53
2023-03-12T06:17:09.111Z,99116.06
2023-03-12T06:19:38.981Z,99119.41
2023-03-12T06:22:07.990Z,99110.09
2023-03-12T06:24:37.042Z,99111.66
2023-03-12T06:27:11.115Z,99110.09
2023-03-12T06:29:41.839Z,99101.38
2023-03-12T06:32:10.797Z,99102.97
2023-03-12T06:34:39.976Z,99107.94
2023-03-12T06:37:09.001Z,99099.41
2023-03-12T06:39:38.453Z,99102.97
2023-03-12T06:42:12.891Z,99099.78
2023-03-12T06:44:43.251Z,99100.78
2023-03-12T06:47:12.468Z,99108.53
2023-03-12T06:49:41.438Z,99105.13
2023-03-12T06:52:10.437Z,99098.22
2023-03-12T06:54:39.521Z,99091.25
2023-03-12T06:57:08.471Z,99088.69
2023-03-12T06:59:40.417Z,99089.50
2023-03-12T07:02:12.709Z,99091.06
2023-03-12T07:04:41.746Z,99081.38
2023-03-12T07:07:11.990Z,99081.94
2023-03-12T07:09:41.067Z,99078.19
2023-03-12T07:12:10.968Z,99081.34
2023-03-12T07:14:39.943Z,99079.56
2023-03-12T07:17:08.920Z,99089.69
2023-03-12T07:19:39.390Z,99080.19
2023-03-12T07:22:10.633Z,99084.34
2023-03-12T07:24:39.796Z,99085.09
2023-03-12T07:27:08.807Z,99080.75
2023-03-12T07:29:37.791Z,99086.72
2023-03-12T07:32:07.121Z,99085.91
2023-03-12T07:34:36.219Z,99094.25
2023-03-12T07:37:06.838Z,99089.84
2023-03-12T07:39:38.937Z,99071.63
2023-03-12T07:42:09.974Z,99077.38
2023-03-12T07:44:40.490Z,99074.41
2023-03-12T07:47:23.130Z,99070.81
2023-03-12T07:49:56.425Z,99080.94
2023-03-12T07:52:28.090Z,99075.59
2023-03-12T07:54:59.234Z,99065.28
2023-03-12T07:57:28.805Z,99067.66
2023-03-12T08:00:07.474Z,99067.44
2023-03-12T08:02:41.208Z,99070.78
2023-03-12T08:05:11.126Z,99067.41
2023-03-12T08:07:44.233Z,99070.81
2023-03-12T08:10:14.053Z,99074.75
2023-03-12T08:12:43.378Z,99080.50
2023-03-12T08:15:14.735Z,99073.56
2023-03-12T08:17:44.138Z,99076.72
2023-03-12T08:20:14.475Z,99075.72
2023-03-12T08:22:45.345Z,99084.06
2023-03-12T08:25:14.791Z,99083.06
2023-03-12T08:27:44.218Z,99094.94
2023-03-12T08:30:14.387Z,99083.88
2023-03-12T08:32:43.595Z,99090.59
2023-03-12T08:35:12.892Z,99081.84
2023-03-12T08:37:42.470Z,99089.38
2023-03-12T08:40:13.948Z,99091.56
2023-03-12T08:42:43.880Z,99085.41
2023-03-12T08:45:15.812Z,99086.22
2023-03-12T08:47:44.962Z,99082.44
2023-03-12T08:50:16.574Z,99088.78
2023-03-12T08:52:46.155Z,99079.84
2023-03-12T08:55:16.601Z,99082.22
2023-03-12T08:57:47.924Z,99075.06
2023-03-12T09:00:18.316Z,99069.69
2023-03-12T09:02:48.104Z,99073.69
2023-03-12T09:05:17.375Z,99074.25
2023-03-12T09:07:46.443Z,99078.19
2023-03-12T09:10:17.066Z,99071.06
2023-03-12T09:12:46.055Z,99059.53
2023-03-12T09:15:15.019Z,99066.25
2023-03-12T09:17:44.030Z,99054.56
2023-03-12T09:20:14.504Z,99063.06
2023-03-12T09:22:44.583Z,99077.38
2023-03-12T09:25:13.693Z,99080.31
2023-03-12T09:27:46.717Z,99066.22
2023-03-12T09:30:18.773Z,99072.53
2023-03-12T09:32:48.116Z,99075.72
2023-03-12T09:35:18.213Z,99069.16
2023-03-12T09:37:51.363Z,99075.91
2023-03-12T09:40:24.094Z,99071.53
2023-03-12T09:42:59.709Z,99078.84
2023-03-12T09:45:32.587Z,99081.22
2023-03-12T09:48:05.589Z,99089.56
2023-03-12T09:50:40.493Z,99082.38
2023-03-12T09:53:18.198Z,99076.03
2023-03-12T09:55:52.200Z,99093.09
2023-03-12T09:58:28.724Z,99088.50
2023-03-12T10:01:07.141Z,99093.09
2023-03-12T10:04:02.655Z,99084.34
2023-03-12T10:06:37.846Z,99077.00
2023-03-12T10:09:31.991Z,99092.28
2023-03-12T10:12:20.036Z,99094.84
2023-03-12T10:15:10.307Z,99103.16
2023-03-12T10:17:57.309Z,99093.22
2023-03-12T10:20:54.285Z,99103.94
2023-03-12T10:23:39.955Z,99097.78
2023-03-12T10:26:22.206Z,99108.91
2023-03-12T10:28:55.267Z,99109.47
2023-03-12T10:31:36.260Z,99103.09
2023-03-12T10:34:19.392Z,99103.69
2023-03-12T10:36:52.473Z,99112.59
2023-03-12T10:39:27.291Z,99118.91
2023-03-12T10:42:09.733Z,99097.84
2023-03-12T10:44:39.141Z,99104.97
2023-03-12T10:47:37.671Z,99102.78
2023-03-12T10:50:21.109Z,99092.81
2023-03-12T10:52:55.633Z,99092.41
2023-03-12T10:55:29.458Z,99091.97
2023-03-12T10:58:01.706Z,99098.09
2023-03-12T11:00:34.788Z,99090.94
2023-03-12T11:03:29.115Z,99090.06
2023-03-12T11:06:03.894Z,99090.66
2023-03-12T11:09:16.098Z,99095.97
2023-03-12T11:11:51.062Z,99104.31
2023-03-12T11:14:24.042Z,99092.56
2023-03-12T11:16:59.866Z,99096.28
2023-03-12T11:19:40.580Z,99099.06
2023-03-12T11:22:21.536Z,99104.34
2023-03-12T11:25:02.350Z,99107.31
2023-03-12T11:27:47.004Z,99114.44
2023-03-12T11:30:39.283Z,99119.19
2023-03-12T11:33:12.501Z,99119.75
2023-03-12T11:36:14.073Z,99112.16
2023-03-12T11:39:02.053Z,99094.22
2023-03-12T11:41:50.747Z,99089.75
2023-03-12T11:44:29.046Z,99096.09
2023-03-12T11:47:19.753Z,99101.97
2023-03-12T11:50:16.919Z,99100.31
2023-03-12T11:53:26.208Z,99106.47
2023-03-12T11:56:05.689Z,99103.22
2023-03-12T11:58:57.074Z,99104.19
2023-03-12T12:02:07.560Z,99091.59
2023-03-12T12:05:00.104Z,99094.69
2023-03-12T12:08:00.363Z,99090.44
2023-03-12T12:10:45.180Z,99080.03
2023-03-12T12:13:32.454Z,99073.97
2023-03-12T12:16:28.981Z,99075.91
2023-03-12T12:19:23.911Z,99076.38
2023-03-12T12:22:21.180Z,99058.97
2023-03-12T12:25:27.017Z,99062.84
2023-03-12T12:28:29.641Z,99049.13
2023-03-12T12:31:13.952Z,99044.13
2023-03-12T12:34:01.997Z,99041.06
2023-03-12T12:36:35.413Z,99043.25
2023-03-12T12:39:10.604Z,99044.81
2023-03-12T12:41:47.052Z,99044.63
2023-03-12T12:44:19.390Z,99031.91
2023-03-12T12:46:52.627Z,99029.31
2023-03-12T12:49:27.832Z,99034.47
2023-03-12T12:52:01.398Z,99034.69
2023-03-12T12:54:48.659Z,99042.69
2023-03-12T12:57:28.210Z,99031.72
2023-03-12T13:00:16.464Z,99024.13
2023-03-12T13:02:47.960Z,99033.38
2023-03-12T13:05:23.881Z,99033.78
2023-03-12T13:07:52.943Z,99024.06
2023-03-12T13:10:53.099Z,99024.94
2023-03-12T13:13:28.615Z,99025.25
2023-03-12T13:16:21.250Z,99021.97
2023-03-12T13:19:01.591Z,99027.25
2023-03-12T13:21:37.968Z,99014.38
2023-03-12T13:24:18.468Z,99033.66
2023-03-12T13:26:56.214Z,99031.16
2023-03-12T13:29:40.079Z,99020.84
2023-03-12T13:32:39.772Z,99014.72
2023-03-12T13:35:34.623Z,99011.66
2023-03-12T13:38:07.867Z,98996.41
2023-03-12T13:41:00.930Z,98992.59
2023-03-12T13:43:52.672Z,98988.03
2023-03-12T13:46:44.252Z,98989.16
2023-03-12T13:49:17.713Z,98990.78
2023-03-12T13:52:12.617Z,98984.91
2023-03-12T13:54:45.295Z,98992.78
2023-03-12T13:57:29.462Z,98981.41
2023-03-12T13:59:59.717Z,98978.09
2023-03-12T14:02:33.813Z,98978.44
2023-03-12T14:05:09.575Z,98987.56
2023-03-12T14:08:12.935Z,98990.72
2023-03-12T14:11:12.824Z,98985.00
2023-03-12T14:14:06.108Z,98974.13
2023-03-12T14:16:42.424Z,98976.03
2023-03-12T14:19:14.639Z,98973.75
2023-03-12T14:21:46.745Z,98973.00
2023-03-12T14:24:26.504Z,98966.84
2023-03-12T14:26:57.223Z,98972.38
2023-03-12T14:29:32.803Z,98981.84
2023-03-12T14:32:07.751Z,98974.56
2023-03-12T14:34:43.732Z,98979.31
2023-03-12T14:37:18.058Z,98978.81
2023-03-12T14:39:54.221Z,98987.19
2023-03-12T14:42:26.240Z,98981.47
2023-03-12T14:44:59.169Z,98963.81
2023-03-12T14:47:28.756Z,98958.91
2023-03-12T14:49:59.037Z,98960.25
2023-03-12T14:52:30.709Z,98944.38
2023-03-12T14:55:03.064Z,98943.91
2023-03-12T14:57:32.647Z,98939.47
2023-03-12T15:00:14.502Z,98934.81
2023-03-12T15:02:44.451Z,98940.78
2023-03-12T15:05:18.943Z,98937.94
2023-03-12T15:07:53.381Z,98940.53
2023-03-12T15:10:27.216Z,98944.19
2023-03-12T15:12:59.267Z,98943.38
2023-03-12T15:15:37.289Z,98947.84
2023-03-12T15:18:08.926Z,98945.22
2023-03-12T15:20:39.585Z,98941.59
2023-03-12T15:23:11.247Z,98940.53
2023-03-12T15:25:42.688Z,98940.53
2023-03-12T15:28:28.799Z,98943.16
2023-03-12T15:31:12.518Z,98945.75
2023-03-12T15:33:43.831Z,98947.34
2023-03-12T15:36:29.048Z,98942.66
2023-03-12T15:39:02.237Z,98938.50
2023-03-12T15:41:49.071Z,98928.09
2023-03-12T15:44:21.624Z,98928.09
2023-03-12T15:46:53.275Z,98940.84
2023-03-12T15:49:27.287Z,98939.06
2023-03-12T15:52:03.346Z,98936.97
2023-03-12T15:54:33.688Z,98948.44
2023-03-12T15:57:35.162Z,98954.44
2023-03-12T16:00:27.959Z,98946.63
2023-03-12T16:02:59.933Z,98950.00
2023-03-12T16:05:33.597Z,98950.78
2023-03-12T16:08:15.635Z,98948.19
2023-03-12T16:10:47.825Z,98946.34
2023-03-12T16:13:20.986Z,98940.91
2023-03-12T16:15:50.958Z,98949.50
2023-03-12T16:18:24.375Z,98957.09
2023-03-12T16:20:54.431Z,98954.22
2023-03-12T16:23:23.604Z,98954.22
2023-03-12T16:25:55.776Z,98950.59
2023-03-12T16:28:27.212Z,98951.38
2023-03-12T16:30:56.254Z,98945.38
2023-03-12T16:33:26.193Z,98937.31
2023-03-12T16:35:55.997Z,98945.94
2023-03-12T16:38:25.054Z,98944.09
2023-03-12T16:40:54.800Z,98944.91
2023-03-12T16:43:29.158Z,98949.88
2023-03-12T16:45:58.373Z,98946.47
2023-03-12T16:48:31.021Z,98951.66
2023-03-12T16:51:00.585Z,98955.88
2023-03-12T16:53:29.809Z,98962.09
2023-03-12T16:56:01.879Z,98962.09
2023-03-12T16:58:32.641Z,98961.59
2023-03-12T17:01:01.752Z,98965.25
2023-03-12T17:03:37.144Z,98974.09
2023-03-12T17:06:08.944Z,98975.09
2023-03-12T17:08:38.015Z,98981.34
2023-03-12T17:11:18.850Z,98974.34
2023-03-12T17:13:53.367Z,98988.38
2023-03-12T17:16:22.551Z,99003.22
2023-03-12T17:18:55.503Z,99000.63
2023-03-12T17:21:24.813Z,99006.34
2023-03-12T17:23:53.782Z,99009.75
2023-03-12T17:26:25.226Z,99017.81
2023-03-12T17:28:55.565Z,99021.97
2023-03-12T17:31:26.382Z,99032.41
2023-03-12T17:33:55.459Z,99029.78
2023-03-12T17:36:24.643Z,99031.88
2023-03-12T17:38:53.619Z,99040.44
2023-03-12T17:41:26.784Z,99025.09
2023-03-12T17:44:02.184Z,99037.06
2023-03-12T17:46:32.543Z,99039.69
2023-03-12T17:49:01.747Z,99034.25
2023-03-12T17:51:30.830Z,99036.03
2023-03-12T17:53:59.836Z,99033.44
2023-03-12T17:56:30.223Z,99035.00
2023-03-12T17:59:00.563Z,99044.41
2023-03-12T18:01:29.548Z,99036.59
2023-03-12T18:03:58.540Z,99040.22
2023-03-12T18:06:29.848Z,99042.28
2023-03-12T18:08:58.894Z,99037.06
2023-03-12T18:11:27.899Z,99042.28
2023-03-12T18:13:56.937Z,99051.66
2023-03-12T18:16:27.401Z,99054.28
2023-03-12T18:18:56.484Z,99055.31
2023-03-12T18:21:26.098Z,99055.84
2023-03-12T18:23:57.481Z,99055.06
2023-03-12T18:26:28.497Z,99045.41
2023-03-12T18:28:58.287Z,99049.06
2023-03-12T18:31:29.379Z,99050.09
2023-03-12T18:33:58.472Z,99054.28
2023-03-12T18:36:27.485Z,99049.06
2023-03-12T18:38:56.458Z,99044.66
2023-03-12T18:41:30.412Z,99043.84
2023-03-12T18:43:59.616Z,99048.81
2023-03-12T18:46:30.092Z,99039.44
2023-03-12T18:49:05.214Z,99038.41
2023-03-12T18:51:34.386Z,99035.00
2023-03-12T18:54:03.647Z,99042.56
2023-03-12T18:56:32.813Z,99036.59
2023-03-12T18:59:01.812Z,99037.38
2023-03-12T19:01:32.448Z,99040.22
2023-03-12T19:04:01.563Z,99043.84
2023-03-12T19:06:40.854Z,99040.22
2023-03-12T19:09:13.931Z,99043.84
2023-03-12T19:11:43.139Z,99051.66
2023-03-12T19:14:12.574Z,99051.91
2023-03-12T19:16:43.094Z,99057.91
2023-03-12T19:19:14.383Z,99059.97
2023-03-12T19:21:43.546Z,99054.22
2023-03-12T19:24:12.485Z,99065.16
2023-03-12T19:26:41.650Z,99063.59
2023-03-12T19:29:10.617Z,99061.22
2023-03-12T19:31:39.672Z,99053.44
2023-03-12T19:34:10.303Z,99064.88
2023-03-12T19:36:39.306Z,99064.63
2023-03-12T19:39:21.066Z,99062.28
2023-03-12T19:41:50.801Z,99058.88
2023-03-12T19:44:19.755Z,99060.44
2023-03-12T19:46:48.905Z,99058.63
2023-03-12T19:49:19.236Z,99067.25
2023-03-12T19:51:52.015Z,99061.47
2023-03-12T19:54:21.604Z,99058.88
2023-03-12T19:56:50.638Z,99061.22
2023-03-12T19:59:22.589Z,99055.78
2023-03-12T20:01:54.129Z,99062.03
2023-03-12T20:04:24.470Z,99062.03
2023-03-12T20:06:56.202Z,99058.41
2023-03-12T20:09:25.283Z,99062.03
2023-03-12T20:11:54.302Z,99068.81
2023-03-12T20:14:26.430Z,99063.59
2023-03-12T20:16:55.476Z,99065.97
2023-03-12T20:19:25.913Z,99055.56
2023-03-12T20:21:55.106Z,99062.56
2023-03-12T20:24:24.434Z,99061.56
2023-03-12T20:26:53.479Z,99055.56
2023-03-12T20:29:22.461Z,99051.38
2023-03-12T20:31:54.604Z,99048.78
2023-03-12T20:34:25.295Z,99055.56
2023-03-12T20:36:54.344Z,99050.09
2023-03-12T20:39:23.297Z,99054.28
2023-03-12T20:41:52.305Z,99044.66
2023-03-12T20:44:21.386Z,99045.41
2023-03-12T20:46:50.504Z,99045.41
2023-03-12T20:49:19.778Z,99034.00
2023-03-12T20:51:50.120Z,99034.53
2023-03-12T20:54:19.102Z,99036.13
2023-03-12T20:56:48.120Z,99030.91
2023-03-12T20:59:19.646Z,99017.88
2023-03-12T21:01:48.598Z,99022.84
2023-03-12T21:04:17.708Z,99022.84
2023-03-12T21:06:47.705Z,99028.06
2023-03-12T21:09:18.205Z,99029.88
2023-03-12T21:11:47.616Z,99035.06
2023-03-12T21:14:16.991Z,99030.41
2023-03-12T21:16:46.014Z,99014.78
2023-03-12T21:19:15.122Z,99014.78
2023-03-12T21:21:44.148Z,99015.56
2023-03-12T21:24:13.281Z,99012.16
2023-03-12T21:26:43.668Z,99009.56
2023-03-12T21:29:15.130Z,99016.38
2023-03-12T21:31:44.139Z,99013.75
2023-03-12T21:34:13.103Z,99012.72
2023-03-12T21:36:44.807Z,99015.31
2023-03-12T21:39:13.938Z,99013.53
2023-03-12T21:41:44.494Z,99010.69
2023-03-12T21:44:16.115Z,99016.66
2023-03-12T21:46:45.565Z,99014.03
2023-03-12T21:49:17.933Z,99015.63
2023-03-12T21:51:46.975Z,99011.44
2023-03-12T21:54:15.949Z,98999.22
2023-03-12T21:56:49.347Z,99001.81
2023-03-12T21:59:18.382Z,98992.97
2023-03-12T22:01:47.458Z,98992.19
2023-03-12T22:04:16.528Z,98981.78
2023-03-12T22:06:45.560Z,98979.41
2023-03-12T22:09:14.613Z,98980.97
2023-03-12T22:11:43.685Z,98967.41
2023-03-12T22:14:14.092Z,98973.41
2023-03-12T22:16:43.091Z,98970.25
2023-03-12T22:19:15.038Z,98972.84
2023-03-12T22:21:44.333Z,98964.03
2023-03-12T22:24:13.627Z,98962.69
2023-03-12T22:26:43.225Z,98942.88
2023-03-12T22:29:14.472Z,98949.13
2023-03-12T22:31:44.279Z,98940.75
2023-03-12T22:34:13.709Z,98941.25
2023-03-12T22:36:43.057Z,98932.91
2023-03-12T22:39:12.291Z,98948.53
2023-03-12T22:41:41.387Z,98941.78
2023-03-12T22:44:10.522Z,98940.97
2023-03-12T22:46:40.895Z,98940.16
2023-03-12T22:49:10.107Z,98950.59
2023-03-12T22:51:39.221Z,98945.38
2023-03-12T22:54:08.267Z,98943.81
2023-03-12T22:56:37.751Z,98942.00
2023-03-12T22:59:06.725Z,98943.81
2023-03-12T23:01:35.761Z,98917.78
2023-03-12T23:04:08.915Z,98920.38
2023-03-12T23:06:38.023Z,98920.13
2023-03-12T23:09:07.154Z,98908.94
2023-03-12T23:11:36.185Z,98914.38
2023-03-12T23:14:07.619Z,98914.63
2023-03-12T23:16:36.749Z,98917.22
2023-03-12T23:19:05.853Z,98924.03
2023-03-12T23:21:36.178Z,98921.41
2023-03-12T23:24:05.568Z,98915.97
2023-03-12T23:26:34.609Z,98925.59
2023-03-12T23:29:03.911Z,98915.97
2023-03-12T23:31:32.949Z,98907.91
2023-03-12T23:34:01.982Z,98910.53
2023-03-12T23:36:31.554Z,98907.91
2023-03-12T23:39:01.990Z,98913.13
2023-03-12T23:41:31.038Z,98906.88
2023-03-12T23:44:00.582Z,98899.84
2023-03-12T23:46:29.885Z,98901.66
2023-03-12T23:48:59.354Z,98894.38
2023-03-12T23:51:30.738Z,98895.97
2023-03-12T23:54:05.278Z,98893.38
2023-03-12T23:56:36.911Z,98894.13
2023-03-12T23:59:08.039Z,98884.50
